createdAt,value
2018-06-01T00:01:33.650Z,99961.33
2018-06-01T00:04:34.917Z,99967.24
2018-06-01T00:07:36.358Z,99965.92
2018-06-01T00:10:37.598Z,99979.82
2018-06-01T00:13:39.593Z,99977.42
2018-06-01T00:16:40.843Z,99983.28
2018-06-01T00:19:42.856Z,99977.12
2018-06-01T00:22:44.099Z,99988.89
2018-06-01T00:25:45.351Z,99980.77
2018-06-01T00:28:48.874Z,99974.77
2018-06-01T00:31:50.525Z,99976.79
2018-06-01T00:34:52.561Z,99981.80
2018-06-01T00:37:53.997Z,99974.73
2018-06-01T00:40:55.237Z,99977.52
2018-06-01T00:43:57.805Z,99976.31
2018-06-01T00:47:02.140Z,99981.95
2018-06-01T00:50:03.426Z,99985.85
2018-06-01T00:53:05.983Z,99980.28
2018-06-01T00:56:07.839Z,99975.27
2018-06-01T00:59:09.218Z,99970.21
2018-06-01T01:02:10.474Z,99961.84
2018-06-01T01:05:11.785Z,99956.59
2018-06-01T01:08:13.042Z,99966.62
2018-06-01T01:11:14.366Z,99975.35
2018-06-01T01:14:15.630Z,99970.09
2018-06-01T01:17:17.814Z,99976.13
2018-06-01T01:20:19.080Z,99974.17
2018-06-01T01:23:20.322Z,99979.85
2018-06-01T01:26:21.660Z,99976.73
2018-06-01T01:29:23.699Z,99976.96
2018-06-01T01:32:24.985Z,99974.28
2018-06-01T01:35:26.646Z,99975.19
2018-06-01T01:38:27.945Z,99990.66
2018-06-01T01:41:29.906Z,99987.00
2018-06-01T01:44:31.173Z,99985.51
2018-06-01T01:47:32.431Z,99986.42
2018-06-01T01:50:33.681Z,99985.13
2018-06-01T01:53:34.938Z,99984.15
2018-06-01T01:56:36.449Z,99995.61
2018-06-01T01:59:38.447Z,99996.92
2018-06-01T02:02:39.674Z,99981.98
2018-06-01T02:05:40.965Z,99984.31
2018-06-01T02:08:42.947Z,99977.80
2018-06-01T02:11:44.426Z,99975.53
2018-06-01T02:14:45.737Z,99978.37
2018-06-01T02:17:47.652Z,99972.02
2018-06-01T02:20:49.636Z,99966.39
2018-06-01T02:23:51.604Z,99961.08
2018-06-01T02:26:52.858Z,99953.88
2018-06-01T02:29:54.771Z,99956.19
2018-06-01T02:32:59.483Z,99954.64
2018-06-01T02:36:01.681Z,99946.22
2018-06-01T02:39:02.967Z,99955.17
2018-06-01T02:42:04.445Z,99953.64
2018-06-01T02:45:05.695Z,99952.91
2018-06-01T02:48:06.972Z,99951.81
2018-06-01T02:51:08.196Z,99945.40
2018-06-01T02:54:09.526Z,99945.50
2018-06-01T02:57:10.771Z,99935.82
2018-06-01T03:00:12.043Z,99930.24
2018-06-01T03:03:13.271Z,99925.72
2018-06-01T03:06:14.580Z,99929.08
2018-06-01T03:09:15.846Z,99915.27
2018-06-01T03:12:17.083Z,99919.60
2018-06-01T03:15:18.356Z,99923.45
2018-06-01T03:18:19.609Z,99922.14
2018-06-01T03:21:20.901Z,99918.97
2018-06-01T03:24:22.228Z,99924.13
2018-06-01T03:27:23.485Z,99938.77
2018-06-01T03:30:24.798Z,99937.42
2018-06-01T03:33:26.045Z,99913.86
2018-06-01T03:36:28.113Z,99936.30
2018-06-01T03:39:29.382Z,99950.21
2018-06-01T03:42:30.654Z,99958.55
2018-06-01T03:45:31.937Z,99964.28
2018-06-01T03:48:33.195Z,99963.17
2018-06-01T03:51:34.464Z,99955.69
2018-06-01T03:54:35.713Z,99958.30
2018-06-01T03:57:36.969Z,99951.09
2018-06-01T04:00:38.245Z,99945.88
2018-06-01T04:03:39.481Z,99960.52
2018-06-01T04:06:40.782Z,99961.34
2018-06-01T04:09:42.020Z,99958.78
2018-06-01T04:12:43.266Z,99985.45
2018-06-01T04:15:45.935Z,99975.48
2018-06-01T04:18:47.456Z,99974.33
2018-06-01T04:21:49.350Z,99976.73
2018-06-01T04:24:51.900Z,99983.95
2018-06-01T04:27:53.876Z,99975.66
2018-06-01T04:30:55.714Z,99972.81
2018-06-01T04:33:58.207Z,99986.14
2018-06-01T04:37:00.826Z,99993.70
2018-06-01T04:40:02.646Z,100002.23
2018-06-01T04:43:04.777Z,100020.02
2018-06-01T04:46:06.593Z,100032.12
2018-06-01T04:49:13.465Z,100049.42
2018-06-01T04:52:17.027Z,100049.12
2018-06-01T04:55:18.832Z,100056.45
2018-06-01T04:58:20.597Z,100046.12
2018-06-01T05:01:23.268Z,100040.20
2018-06-01T05:04:25.138Z,100040.91
2018-06-01T05:07:27.036Z,100012.16
2018-06-01T05:10:29.691Z,100041.91
2018-06-01T05:13:31.547Z,100027.45
2018-06-01T05:16:33.411Z,100021.93
2018-06-01T05:19:35.913Z,100015.30
2018-06-01T05:22:37.732Z,100001.83
2018-06-01T05:25:39.451Z,99999.52
2018-06-01T05:28:42.052Z,99999.78
2018-06-01T05:31:43.807Z,99998.02
2018-06-01T05:34:46.335Z,100004.88
2018-06-01T05:37:48.125Z,100007.58
2018-06-01T05:40:49.939Z,100002.42
2018-06-01T05:43:51.717Z,100013.87
2018-06-01T05:46:53.697Z,100012.52
2018-06-01T05:49:55.999Z,100004.52
2018-06-01T05:52:57.838Z,100010.53
2018-06-01T05:55:59.608Z,100009.56
2018-06-01T05:59:01.379Z,100006.30
2018-06-01T06:02:03.924Z,100005.01
2018-06-01T06:05:05.744Z,100012.89
2018-06-01T06:08:07.537Z,100016.20
2018-06-01T06:11:09.267Z,100018.16
2018-06-01T06:14:11.041Z,100014.47
2018-06-01T06:17:12.805Z,100020.70
2018-06-01T06:20:14.608Z,100016.77
2018-06-01T06:23:16.326Z,100004.63
2018-06-01T06:26:18.103Z,100007.84
2018-06-01T06:29:20.401Z,99999.17
2018-06-01T06:32:22.951Z,99993.39
2018-06-01T06:35:24.788Z,100001.08
2018-06-01T06:38:26.585Z,100000.89
2018-06-01T06:41:28.327Z,99993.70
2018-06-01T06:44:30.863Z,99994.73
2018-06-01T06:47:32.642Z,99989.77
2018-06-01T06:50:34.393Z,99976.45
2018-06-01T06:53:36.153Z,99999.59
2018-06-01T06:56:38.658Z,99982.93
2018-06-01T06:59:40.522Z,99987.97
2018-06-01T07:02:42.331Z,99990.50
2018-06-01T07:05:44.129Z,100003.05
2018-06-01T07:08:45.836Z,100003.54
2018-06-01T07:11:48.354Z,99996.72
2018-06-01T07:14:50.116Z,99993.06
2018-06-01T07:17:51.927Z,99987.55
2018-06-01T07:20:53.719Z,99974.39
2018-06-01T07:23:55.496Z,99995.66
2018-06-01T07:26:57.232Z,100002.36
2018-06-01T07:29:58.994Z,100003.55
2018-06-01T07:33:00.732Z,100007.81
2018-06-01T07:36:02.522Z,100011.26
2018-06-01T07:39:05.498Z,100018.92
2018-06-01T07:42:07.265Z,100016.66
2018-06-01T07:45:09.020Z,100008.86
2018-06-01T07:48:10.998Z,100025.01
2018-06-01T07:51:14.741Z,100024.78
2018-06-01T07:54:16.524Z,100048.95
2018-06-01T07:57:18.278Z,100061.64
2018-06-01T08:00:20.156Z,100073.52
2018-06-01T08:03:21.906Z,100067.59
2018-06-01T08:06:24.413Z,100067.14
2018-06-01T08:09:26.167Z,100067.40
2018-06-01T08:12:28.627Z,100052.28
2018-06-01T08:15:30.405Z,100005.70
2018-06-01T08:18:32.107Z,100003.65
2018-06-01T08:21:33.855Z,100008.16
2018-06-01T08:24:35.580Z,100008.06
2018-06-01T08:27:37.374Z,100019.50
2018-06-01T08:30:39.122Z,100022.84
2018-06-01T08:33:40.919Z,100043.24
2018-06-01T08:36:42.669Z,100044.00
2018-06-01T08:39:44.384Z,100047.95
2018-06-01T08:42:46.166Z,100050.51
2018-06-01T08:45:47.988Z,100050.91
2018-06-01T08:48:49.835Z,100053.98
2018-06-01T08:51:51.941Z,100027.32
2018-06-01T08:54:54.454Z,100042.23
2018-06-01T08:57:56.226Z,100034.75
2018-06-01T09:00:58.043Z,100035.55
2018-06-01T09:03:59.762Z,100032.89
2018-06-01T09:07:01.595Z,100036.05
2018-06-01T09:10:03.384Z,100042.01
2018-06-01T09:13:06.755Z,100040.91
2018-06-01T09:16:08.521Z,100049.64
2018-06-01T09:19:10.192Z,100047.27
2018-06-01T09:22:11.968Z,100056.33
2018-06-01T09:25:13.810Z,100057.97
2018-06-01T09:28:16.312Z,100061.72
2018-06-01T09:31:18.635Z,100064.61
2018-06-01T09:34:21.291Z,100065.48
2018-06-01T09:37:23.112Z,100071.97
2018-06-01T09:40:24.847Z,100074.75
2018-06-01T09:43:27.934Z,100078.45
2018-06-01T09:46:29.325Z,100076.66
2018-06-01T09:49:30.579Z,100080.28
2018-06-01T09:52:31.835Z,100073.47
2018-06-01T09:55:33.158Z,100079.83
2018-06-01T09:58:34.390Z,100087.42
2018-06-01T10:01:36.400Z,100088.86
2018-06-01T10:04:37.637Z,100083.98
2018-06-01T10:07:39.608Z,100084.38
2018-06-01T10:10:40.851Z,100084.13
2018-06-01T10:13:42.069Z,100094.89
2018-06-01T10:16:43.362Z,100086.72
2018-06-01T10:19:44.577Z,100084.19
2018-06-01T10:22:46.562Z,100087.16
2018-06-01T10:25:48.533Z,100089.55
2018-06-01T10:28:50.524Z,100089.31
2018-06-01T10:31:51.776Z,100079.27
2018-06-01T10:34:53.742Z,100083.31
2018-06-01T10:37:55.041Z,100075.91
2018-06-01T10:40:56.284Z,100052.63
2018-06-01T10:43:58.249Z,100050.83
2018-06-01T10:46:59.502Z,100060.02
2018-06-01T10:50:00.745Z,100058.41
2018-06-01T10:53:02.012Z,100064.92
2018-06-01T10:56:03.234Z,100059.17
2018-06-01T10:59:04.467Z,100067.05
2018-06-01T11:02:05.712Z,100058.85
2018-06-01T11:05:06.948Z,100058.92
2018-06-01T11:08:08.945Z,100064.62
2018-06-01T11:11:10.167Z,100080.98
2018-06-01T11:14:11.409Z,100075.78
2018-06-01T11:17:13.386Z,100063.44
2018-06-01T11:20:14.691Z,100066.48
2018-06-01T11:23:15.915Z,100062.16
2018-06-01T11:26:17.880Z,100070.00
2018-06-01T11:29:19.110Z,100069.49
2018-06-01T11:32:20.367Z,100072.30
2018-06-01T11:35:21.605Z,100065.03
2018-06-01T11:38:22.856Z,100076.52
2018-06-01T11:41:24.823Z,100066.48
2018-06-01T11:44:26.794Z,100070.22
2018-06-01T11:47:28.062Z,100067.34
2018-06-01T11:50:30.060Z,100070.40
2018-06-01T11:53:31.309Z,100067.28
2018-06-01T11:56:33.269Z,100079.66
2018-06-01T11:59:34.552Z,100078.49
2018-06-01T12:02:35.833Z,100079.36
2018-06-01T12:05:37.077Z,100072.10
2018-06-01T12:08:38.336Z,100064.85
2018-06-01T12:11:40.349Z,100071.39
2018-06-01T12:14:41.573Z,100074.59
2018-06-01T12:20:43.934Z,100073.06
2018-06-01T12:23:45.163Z,100080.14
2018-06-01T12:26:46.401Z,100066.86
2018-06-01T12:29:48.366Z,100071.16
2018-06-01T12:32:49.633Z,100065.45
2018-06-01T12:35:50.862Z,100065.55
2018-06-01T12:38:52.128Z,100070.58
2018-06-01T12:41:53.365Z,100067.39
2018-06-01T12:44:55.322Z,100060.03
2018-06-01T12:47:56.596Z,100066.86
2018-06-01T12:50:57.816Z,100069.45
2018-06-01T12:53:59.099Z,100058.98
2018-06-01T12:57:00.318Z,100062.50
2018-06-01T13:00:01.577Z,100051.28
2018-06-01T13:03:02.860Z,100050.35
2018-06-01T13:06:04.122Z,100058.92
2018-06-01T13:09:05.409Z,100047.48
2018-06-01T13:12:06.739Z,100039.30
2018-06-01T13:15:08.005Z,100041.89
2018-06-01T13:18:09.258Z,100053.11
2018-06-01T13:21:10.494Z,100053.08
2018-06-01T13:24:11.843Z,100064.43
2018-06-01T13:27:13.109Z,100058.30
2018-06-01T13:30:14.365Z,100055.09
2018-06-01T13:33:15.714Z,100050.77
2018-06-01T13:36:16.958Z,100052.51
2018-06-01T13:39:18.227Z,100048.03
2018-06-01T13:42:19.708Z,100049.16
2018-06-01T13:45:21.033Z,100047.56
2018-06-01T13:48:22.294Z,100042.08
2018-06-01T13:51:24.270Z,100044.46
2018-06-01T13:54:26.241Z,100043.22
2018-06-01T13:57:28.273Z,100049.14
2018-06-01T14:00:29.594Z,100048.08
2018-06-01T14:03:30.803Z,100054.33
2018-06-01T14:06:32.031Z,100050.95
2018-06-01T14:09:33.294Z,100056.14
2018-06-01T14:12:34.538Z,100069.61
2018-06-01T14:15:36.520Z,100051.61
2018-06-01T14:18:38.480Z,100052.78
2018-06-01T14:21:39.727Z,100049.75
2018-06-01T14:24:41.132Z,100042.30
2018-06-01T14:27:43.120Z,100040.59
2018-06-01T14:30:45.091Z,100036.47
2018-06-01T14:33:47.093Z,100033.67
2018-06-01T14:36:48.351Z,100042.48
2018-06-01T14:39:49.599Z,100037.37
2018-06-01T14:42:51.574Z,100034.14
2018-06-01T14:45:53.556Z,100039.78
2018-06-01T14:48:55.550Z,100037.53
2018-06-01T14:51:56.805Z,100037.65
2018-06-01T14:54:58.775Z,100037.71
2018-06-01T14:58:00.766Z,100020.36
2018-06-01T15:01:02.774Z,100018.49
2018-06-01T15:04:04.039Z,100016.80
2018-06-01T15:07:05.254Z,100015.62
2018-06-01T15:10:06.560Z,100011.25
2018-06-01T15:13:07.850Z,100010.58
2018-06-01T15:16:09.108Z,100009.55
2018-06-01T15:19:10.381Z,100011.03
2018-06-01T15:22:13.032Z,100017.95
2018-06-01T15:25:14.330Z,100022.75
2018-06-01T15:28:15.582Z,100016.00
2018-06-01T15:31:16.828Z,100021.55
2018-06-01T15:34:18.070Z,100031.79
2018-06-01T15:37:20.059Z,100025.41
2018-06-01T15:40:22.043Z,100028.11
2018-06-01T15:43:24.058Z,100025.52
2018-06-01T15:46:25.345Z,100024.50
2018-06-01T15:49:26.598Z,100021.81
2018-06-01T15:52:27.892Z,100027.27
2018-06-01T15:55:29.904Z,100026.63
2018-06-01T15:58:31.153Z,100035.17
2018-06-01T16:01:33.160Z,100036.21
2018-06-01T16:04:34.413Z,100045.97
2018-06-01T16:07:36.125Z,100048.17
2018-06-01T16:10:38.044Z,100046.74
2018-06-01T16:13:40.064Z,100058.52
2018-06-01T16:16:41.310Z,100058.43
2018-06-01T16:19:42.577Z,100050.14
2018-06-01T16:22:43.838Z,100052.58
2018-06-01T16:25:45.120Z,100043.38
2018-06-01T16:28:46.383Z,100049.63
2018-06-01T16:31:47.637Z,100047.59
2018-06-01T16:34:48.881Z,100049.02
2018-06-01T16:37:50.150Z,100055.24
2018-06-01T16:40:51.416Z,100048.12
2018-06-01T16:43:52.662Z,100040.87
2018-06-01T16:46:54.623Z,100042.44
2018-06-01T16:49:55.905Z,100049.25
2018-06-01T16:52:57.876Z,100060.28
2018-06-01T16:55:59.874Z,100060.01
2018-06-01T16:59:01.101Z,100067.16
2018-06-01T17:02:02.347Z,100064.41
2018-06-01T17:05:03.640Z,100065.62
2018-06-01T17:08:05.685Z,100065.95
2018-06-01T17:11:06.918Z,100082.63
2018-06-01T17:14:08.148Z,100084.26
2018-06-01T17:17:10.128Z,100085.23
2018-06-01T17:20:12.113Z,100084.70
2018-06-01T17:23:14.094Z,100081.70
2018-06-01T17:26:16.133Z,100087.06
2018-06-01T17:29:17.422Z,100096.02
2018-06-01T17:32:18.665Z,100093.73
2018-06-01T17:35:21.315Z,100109.21
2018-06-01T17:38:22.585Z,100108.52
2018-06-01T17:41:23.881Z,100106.62
2018-06-01T17:44:25.091Z,100111.10
2018-06-01T17:47:27.125Z,100116.84
2018-06-01T17:50:28.381Z,100117.80
2018-06-01T17:53:29.636Z,100105.33
2018-06-01T17:56:31.125Z,100111.05
2018-06-01T17:59:32.378Z,100112.61
2018-06-01T18:02:33.647Z,100114.91
2018-06-01T18:05:35.627Z,100114.87
2018-06-01T18:08:36.912Z,100116.76
2018-06-01T18:11:38.145Z,100115.34
2018-06-01T18:14:39.405Z,100119.09
2018-06-01T18:17:40.637Z,100106.20
2018-06-01T18:20:41.874Z,100114.91
2018-06-01T18:23:43.129Z,100123.39
2018-06-01T18:26:45.143Z,100120.68
2018-06-01T18:29:46.387Z,100126.86
2018-06-01T18:32:48.376Z,100123.30
2018-06-01T18:35:50.332Z,100117.55
2018-06-01T18:38:51.677Z,100121.20
2018-06-01T18:41:52.937Z,100126.09
2018-06-01T18:44:54.241Z,100134.61
2018-06-01T18:47:56.226Z,100136.80
2018-06-01T18:50:58.253Z,100152.51
2018-06-01T18:53:59.518Z,100150.75
2018-06-01T18:57:00.807Z,100151.41
2018-06-01T19:00:02.145Z,100159.39
2018-06-01T19:03:03.423Z,100161.02
2018-06-01T19:06:04.829Z,100173.30
2018-06-01T19:09:06.834Z,100166.00
2018-06-01T19:12:08.041Z,100188.41
2018-06-01T19:15:09.275Z,100178.61
2018-06-01T19:18:10.507Z,100184.56
2018-06-01T19:21:12.478Z,100188.19
2018-06-01T19:24:14.460Z,100196.15
2018-06-01T19:27:16.429Z,100198.80
2018-06-01T19:30:17.696Z,100196.28
2018-06-01T19:33:19.657Z,100204.88
2018-06-01T19:36:20.952Z,100210.48
2018-06-01T19:39:22.940Z,100217.78
2018-06-01T19:42:24.242Z,100226.56
2018-06-01T19:45:25.986Z,100225.81
2018-06-01T19:48:27.745Z,100230.03
2018-06-01T19:51:29.837Z,100234.63
2018-06-01T19:54:31.606Z,100239.15
2018-06-01T19:57:34.077Z,100241.50
2018-06-01T20:00:35.473Z,100241.19
2018-06-01T20:03:37.020Z,100238.59
2018-06-01T20:06:39.556Z,100251.05
2018-06-01T20:09:40.874Z,100248.10
2018-06-01T20:12:42.850Z,100247.70
2018-06-01T20:15:44.190Z,100244.39
2018-06-01T20:18:45.476Z,100240.87
2018-06-01T20:21:46.719Z,100233.77
2018-06-01T20:24:48.799Z,100232.45
2018-06-01T20:27:50.071Z,100206.44
2018-06-01T20:30:51.463Z,100233.55
2018-06-01T20:33:53.776Z,100232.78
2018-06-01T20:36:55.032Z,100227.95
2018-06-01T20:39:56.304Z,100225.58
2018-06-01T20:42:57.729Z,100221.69
2018-06-01T20:45:59.832Z,100227.77
2018-06-01T20:49:02.724Z,100225.81
2018-06-01T20:52:05.015Z,100233.16
2018-06-01T20:55:06.250Z,100242.41
2018-06-01T20:58:07.473Z,100237.32
2018-06-01T21:01:08.722Z,100241.46
2018-06-01T21:04:09.989Z,100240.59
2018-06-01T21:07:11.321Z,100244.64
2018-06-01T21:10:13.318Z,100246.27
2018-06-01T21:13:14.585Z,100245.30
2018-06-01T21:16:16.586Z,100249.66
2018-06-01T21:19:17.874Z,100256.25
2018-06-01T21:22:19.099Z,100254.48
2018-06-01T21:25:20.369Z,100255.09
2018-06-01T21:28:21.617Z,100262.58
2018-06-01T21:31:23.640Z,100269.32
2018-06-01T21:34:25.034Z,100265.77
2018-06-01T21:37:26.280Z,100278.34
2018-06-01T21:40:27.513Z,100275.46
2018-06-01T21:43:28.753Z,100281.61
2018-06-01T21:46:30.723Z,100287.20
2018-06-01T21:49:32.686Z,100281.08
2018-06-01T21:52:33.919Z,100280.54
2018-06-01T21:55:35.259Z,100284.53
2018-06-01T21:58:36.578Z,100286.00
2018-06-01T22:01:37.849Z,100293.95
2018-06-01T22:04:39.096Z,100287.45
2018-06-01T22:07:40.373Z,100288.48
2018-06-01T22:10:41.762Z,100282.09
2018-06-01T22:13:43.051Z,100279.20
2018-06-01T22:16:44.319Z,100281.77
2018-06-01T22:19:45.662Z,100271.98
2018-06-01T22:22:46.911Z,100282.14
2018-06-01T22:25:48.877Z,100280.05
2018-06-01T22:28:50.140Z,100280.81
2018-06-01T22:31:51.491Z,100275.20
2018-06-01T22:34:52.705Z,100282.69
2018-06-01T22:37:53.957Z,100281.97
2018-06-01T22:40:56.130Z,100275.53
2018-06-01T22:43:58.147Z,100288.56
2018-06-01T22:46:59.713Z,100278.92
2018-06-01T22:50:00.962Z,100274.52
2018-06-01T22:58:25.018Z,100276.23
2018-06-01T23:01:26.259Z,100283.65
2018-06-01T23:04:28.310Z,100280.00
2018-06-01T23:07:29.597Z,100272.73
2018-06-01T23:10:31.801Z,100265.45
2018-06-01T23:13:33.067Z,100273.55
2018-06-01T23:16:35.097Z,100268.80
2018-06-01T23:19:36.330Z,100273.51
2018-06-01T23:22:37.546Z,100276.40
2018-06-01T23:25:38.800Z,100274.19
2018-06-01T23:28:40.039Z,100264.98
2018-06-01T23:31:41.254Z,100262.89
2018-06-01T23:34:43.256Z,100268.28
2018-06-01T23:37:44.491Z,100257.59
2018-06-01T23:40:46.446Z,100267.16
2018-06-01T23:43:47.688Z,100255.73
2018-06-01T23:46:48.926Z,100267.37
2018-06-01T23:49:50.161Z,100268.61
2018-06-01T23:52:52.172Z,100263.24
2018-06-01T23:55:53.465Z,100273.90
2018-06-01T23:58:54.719Z,100267.34
